createdAt,value
2018-09-27T00:00:58.722Z,98447.98
2018-09-27T00:03:27.269Z,98445.95
2018-09-27T00:05:55.850Z,98447.48
2018-09-27T00:08:24.394Z,98448.03
2018-09-27T00:10:52.965Z,98451.11
2018-09-27T00:13:21.522Z,98452.17
2018-09-27T00:15:50.221Z,98453.22
2018-09-27T00:18:18.771Z,98446.23
2018-09-27T00:20:47.353Z,98448.91
2018-09-27T00:23:15.910Z,98454.14
2018-09-27T00:25:44.486Z,98451.10
2018-09-27T00:28:13.030Z,98448.25
2018-09-27T00:30:41.602Z,98450.95
2018-09-27T00:33:10.170Z,98453.30
2018-09-27T00:35:38.733Z,98447.91
2018-09-27T00:38:07.291Z,98440.82
2018-09-27T00:40:35.875Z,98441.24
2018-09-27T00:43:04.521Z,98441.14
2018-09-27T00:45:33.073Z,98429.91
2018-09-27T00:48:01.636Z,98432.81
2018-09-27T00:50:30.206Z,98426.14
2018-09-27T00:52:58.777Z,98429.32
2018-09-27T00:55:27.326Z,98426.28
2018-09-27T00:57:55.868Z,98428.34
2018-09-27T01:00:24.481Z,98429.21
2018-09-27T01:02:53.053Z,98424.70
2018-09-27T01:05:21.737Z,98411.10
2018-09-27T01:07:50.288Z,98414.38
2018-09-27T01:10:18.870Z,98416.09
2018-09-27T01:12:47.426Z,98415.70
2018-09-27T01:15:16.006Z,98414.59
2018-09-27T01:17:44.554Z,98414.20
2018-09-27T01:20:13.139Z,98411.10
2018-09-27T01:22:41.704Z,98409.02
2018-09-27T01:25:10.578Z,98416.38
2018-09-27T01:27:39.139Z,98406.52
2018-09-27T01:30:08.114Z,98409.32
2018-09-27T01:32:36.666Z,98401.00
2018-09-27T01:35:05.298Z,98401.75
2018-09-27T01:37:33.875Z,98400.01
2018-09-27T01:40:04.246Z,98399.21
2018-09-27T01:42:32.824Z,98390.73
2018-09-27T01:45:01.397Z,98385.87
2018-09-27T01:47:29.942Z,98392.17
2018-09-27T01:49:58.502Z,98384.52
2018-09-27T01:52:27.669Z,98387.53
2018-09-27T01:54:56.394Z,98389.75
2018-09-27T01:57:24.953Z,98391.32
2018-09-27T01:59:53.512Z,98391.48
2018-09-27T02:02:22.083Z,98386.17
2018-09-27T02:04:50.662Z,98385.16
2018-09-27T02:07:19.213Z,98383.45
2018-09-27T02:09:47.766Z,98376.36
2018-09-27T02:12:16.338Z,98376.94
2018-09-27T02:14:44.889Z,98376.05
2018-09-27T02:17:13.462Z,98373.53
2018-09-27T02:19:42.093Z,98371.31
2018-09-27T02:22:10.678Z,98370.47
2018-09-27T02:24:39.234Z,98371.98
2018-09-27T02:27:07.838Z,98375.69
2018-09-27T02:29:36.369Z,98369.73
2018-09-27T02:32:04.943Z,98367.72
2018-09-27T02:34:33.506Z,98370.47
2018-09-27T02:37:02.380Z,98364.64
2018-09-27T02:39:30.922Z,98363.89
2018-09-27T02:41:59.489Z,98361.05
2018-09-27T02:44:28.021Z,98365.73
2018-09-27T02:46:56.622Z,98357.97
2018-09-27T02:49:25.164Z,98356.95
2018-09-27T02:51:53.739Z,98352.31
2018-09-27T02:54:22.293Z,98359.38
2018-09-27T02:56:50.858Z,98358.11
2018-09-27T02:59:20.037Z,98357.54
2018-09-27T03:01:48.630Z,98356.20
2018-09-27T03:04:17.189Z,98349.22
2018-09-27T03:06:45.758Z,98345.05
2018-09-27T03:09:14.322Z,98342.24
2018-09-27T03:11:43.241Z,98339.45
2018-09-27T03:14:11.795Z,98341.59
2018-09-27T03:16:40.366Z,98335.41
2018-09-27T03:19:08.900Z,98336.02
2018-09-27T03:21:37.496Z,98338.77
2018-09-27T03:24:06.062Z,98334.16
2018-09-27T03:26:34.635Z,98334.33
2018-09-27T03:29:03.202Z,98334.77
2018-09-27T03:31:31.991Z,98327.42
2018-09-27T03:34:00.599Z,98328.84
2018-09-27T03:36:29.187Z,98327.20
2018-09-27T03:38:57.721Z,98331.02
2018-09-27T03:41:26.546Z,98323.87
2018-09-27T03:43:55.105Z,98320.62
2018-09-27T03:46:23.691Z,98315.69
2018-09-27T03:48:52.253Z,98313.86
2018-09-27T03:51:20.816Z,98319.12
2018-09-27T03:53:49.365Z,98314.73
2018-09-27T03:56:17.927Z,98310.13
2018-09-27T03:58:46.477Z,98305.30
2018-09-27T04:01:15.958Z,98310.30
2018-09-27T04:03:44.506Z,98313.36
2018-09-27T04:06:13.082Z,98311.24
2018-09-27T04:08:41.620Z,98306.95
2018-09-27T04:11:10.196Z,98305.98
2018-09-27T04:13:38.745Z,98306.12
2018-09-27T04:16:07.432Z,98300.66
2018-09-27T04:18:36.835Z,98309.91
2018-09-27T04:21:05.439Z,98303.53
2018-09-27T04:23:33.989Z,98299.83
2018-09-27T04:26:02.549Z,98295.66
2018-09-27T04:28:31.094Z,98297.50
2018-09-27T04:30:59.882Z,98295.59
2018-09-27T04:33:28.445Z,98294.23
2018-09-27T04:36:02.266Z,98286.03
2018-09-27T04:38:30.850Z,98289.14
2018-09-27T04:41:00.385Z,98290.59
2018-09-27T04:43:28.929Z,98286.92
2018-09-27T04:45:57.600Z,98286.16
2018-09-27T04:48:26.082Z,98276.84
2018-09-27T04:50:54.699Z,98278.03
2018-09-27T04:53:23.272Z,98271.06
2018-09-27T04:55:51.796Z,98275.06
2018-09-27T04:58:20.354Z,98278.36
2018-09-27T05:00:48.959Z,98280.39
2018-09-27T05:03:17.550Z,98271.72
2018-09-27T05:05:46.093Z,98270.70
2018-09-27T05:08:14.665Z,98267.97
2018-09-27T05:10:43.226Z,98269.23
2018-09-27T05:13:11.793Z,98268.16
2018-09-27T05:15:40.591Z,98270.37
2018-09-27T05:18:09.757Z,98272.79
2018-09-27T05:20:38.338Z,98272.36
2018-09-27T05:23:06.893Z,98268.23
2018-09-27T05:25:35.442Z,98271.39
2018-09-27T05:28:04.045Z,98277.54
2018-09-27T05:30:32.597Z,98269.22
2018-09-27T05:33:01.181Z,98265.47
2018-09-27T05:35:29.738Z,98266.80
2018-09-27T05:37:58.476Z,98268.09
2018-09-27T05:40:27.029Z,98268.09
2018-09-27T05:42:55.611Z,98269.91
2018-09-27T05:45:24.197Z,98263.37
2018-09-27T05:47:52.754Z,98257.92
2018-09-27T05:50:21.318Z,98261.97
2018-09-27T05:52:50.054Z,98261.84
2018-09-27T05:55:18.618Z,98269.12
2018-09-27T05:57:47.195Z,98267.25
2018-09-27T06:00:15.782Z,98268.58
2018-09-27T06:02:44.363Z,98272.52
2018-09-27T06:05:12.926Z,98274.28
2018-09-27T06:07:41.759Z,98271.85
2018-09-27T06:10:10.310Z,98273.27
2018-09-27T06:12:38.902Z,98270.84
2018-09-27T06:15:07.544Z,98270.56
2018-09-27T06:17:36.089Z,98262.67
2018-09-27T06:20:04.717Z,98260.70
2018-09-27T06:22:33.257Z,98253.88
2018-09-27T06:25:01.863Z,98266.34
2018-09-27T06:27:30.476Z,98256.34
2018-09-27T06:29:59.054Z,98256.48
2018-09-27T06:32:27.618Z,98246.41
2018-09-27T06:34:56.280Z,98235.23
2018-09-27T06:37:24.764Z,98230.00
2018-09-27T06:39:53.674Z,98227.14
2018-09-27T06:42:22.272Z,98226.78
2018-09-27T06:44:50.859Z,98220.69
2018-09-27T06:47:19.411Z,98223.52
2018-09-27T06:49:48.034Z,98210.44
2018-09-27T06:52:16.614Z,98226.89
2018-09-27T06:54:45.267Z,98221.88
2018-09-27T06:57:13.763Z,98218.36
2018-09-27T06:59:42.349Z,98216.33
2018-09-27T07:02:10.898Z,98215.84
2018-09-27T07:04:39.504Z,98212.13
2018-09-27T07:07:08.147Z,98207.41
2018-09-27T07:09:36.739Z,98210.27
2018-09-27T07:12:05.465Z,98214.63
2018-09-27T07:14:34.220Z,98223.79
2018-09-27T07:17:02.778Z,98206.88
2018-09-27T07:19:31.342Z,98197.55
2018-09-27T07:21:59.877Z,98198.44
2018-09-27T07:24:28.820Z,98197.39
2018-09-27T07:26:57.468Z,98190.23
2018-09-27T07:29:26.182Z,98195.98
2018-09-27T07:31:54.740Z,98194.41
2018-09-27T07:34:23.330Z,98190.95
2018-09-27T07:36:51.893Z,98195.80
2018-09-27T07:39:20.509Z,98190.03
2018-09-27T07:41:49.057Z,98188.97
2018-09-27T07:44:17.643Z,98191.54
2018-09-27T07:46:46.182Z,98194.02
2018-09-27T07:49:14.758Z,98196.37
2018-09-27T07:51:43.323Z,98196.62
2018-09-27T07:54:11.924Z,98187.52
2018-09-27T07:56:40.575Z,98191.91
2018-09-27T07:59:09.134Z,98192.59
2018-09-27T08:01:37.738Z,98192.77
2018-09-27T08:04:06.321Z,98189.00
2018-09-27T08:06:34.870Z,98181.98
2018-09-27T08:09:03.923Z,98186.95
2018-09-27T08:11:32.564Z,98183.83
2018-09-27T08:14:01.552Z,98187.45
2018-09-27T08:16:30.137Z,98182.85
2018-09-27T08:18:59.770Z,98174.80
2018-09-27T08:22:30.973Z,98181.59
2018-09-27T08:24:59.542Z,98179.20
2018-09-27T08:27:28.165Z,98180.09
2018-09-27T08:29:57.142Z,98179.13
2018-09-27T08:32:25.750Z,98186.25
2018-09-27T08:34:57.017Z,98184.87
2018-09-27T08:37:26.477Z,98177.91
2018-09-27T08:39:55.066Z,98180.21
2018-09-27T08:42:23.643Z,98176.25
2018-09-27T08:44:52.793Z,98172.11
2018-09-27T08:47:21.187Z,98171.70
2018-09-27T08:49:49.786Z,98172.61
2018-09-27T08:52:18.373Z,98171.34
2018-09-27T08:54:47.474Z,98167.55
2018-09-27T08:57:16.309Z,98166.91
2018-09-27T08:59:44.902Z,98169.31
2018-09-27T09:02:13.757Z,98157.72
2018-09-27T09:04:42.562Z,98153.33
2018-09-27T09:07:11.158Z,98154.77
2018-09-27T09:09:39.758Z,98138.45
2018-09-27T09:12:08.838Z,98148.97
2018-09-27T09:14:37.443Z,98141.41
2018-09-27T09:17:06.453Z,98140.67
2018-09-27T09:19:35.083Z,98133.35
2018-09-27T09:22:03.635Z,98139.34
2018-09-27T09:24:32.236Z,98143.22
2018-09-27T09:27:00.814Z,98134.81
2018-09-27T09:29:29.526Z,98135.23
2018-09-27T09:31:58.037Z,98134.77
2018-09-27T09:34:26.669Z,98131.89
2018-09-27T09:36:55.229Z,98121.20
2018-09-27T09:39:23.918Z,98129.97
2018-09-27T09:41:52.494Z,98120.31
2018-09-27T09:44:21.075Z,98124.82
2018-09-27T09:46:49.697Z,98116.38
2018-09-27T09:49:18.257Z,98112.09
2018-09-27T09:51:47.426Z,98116.04
2018-09-27T09:54:16.989Z,98102.53
2018-09-27T09:56:45.590Z,98107.66
2018-09-27T09:59:14.446Z,98113.61
2018-09-27T10:01:43.029Z,98106.78
2018-09-27T10:04:11.577Z,98102.86
2018-09-27T10:06:40.424Z,98108.03
2018-09-27T10:09:10.479Z,98104.39
2018-09-27T10:11:39.178Z,98098.25
2018-09-27T10:14:08.141Z,98102.92
2018-09-27T10:16:37.482Z,98102.93
2018-09-27T10:19:06.100Z,98084.89
2018-09-27T10:21:35.092Z,98093.45
2018-09-27T10:24:04.207Z,98090.02
2018-09-27T10:26:32.986Z,98093.80
2018-09-27T10:29:01.563Z,98077.31
2018-09-27T10:31:30.154Z,98080.71
2018-09-27T10:33:58.969Z,98082.41
2018-09-27T10:36:27.906Z,98079.91
2018-09-27T10:38:56.470Z,98081.90
2018-09-27T10:41:25.046Z,98075.78
2018-09-27T10:43:53.849Z,98074.58
2018-09-27T10:46:22.832Z,98069.72
2018-09-27T10:48:51.397Z,98067.63
2018-09-27T10:51:20.085Z,98062.21
2018-09-27T10:53:48.967Z,98063.73
2018-09-27T10:56:17.560Z,98073.28
2018-09-27T10:58:46.134Z,98063.66
2018-09-27T11:01:15.681Z,98053.86
2018-09-27T11:03:44.245Z,98054.70
2018-09-27T11:06:13.834Z,98049.65
2018-09-27T11:08:42.717Z,98043.89
2018-09-27T11:11:11.396Z,98046.48
2018-09-27T11:13:39.891Z,98054.95
2018-09-27T11:16:09.216Z,98047.05
2018-09-27T11:18:37.793Z,98039.11
2018-09-27T11:21:06.417Z,98044.50
2018-09-27T11:23:35.276Z,98027.66
2018-09-27T11:26:04.695Z,98030.20
2018-09-27T11:28:38.458Z,98021.07
2018-09-27T11:31:12.275Z,98016.59
2018-09-27T11:33:40.924Z,98020.23
2018-09-27T11:36:09.512Z,98004.07
2018-09-27T11:38:38.232Z,98008.31
2018-09-27T11:41:06.833Z,98002.77
2018-09-27T11:43:36.593Z,97997.14
2018-09-27T11:46:05.175Z,98001.38
2018-09-27T11:48:34.068Z,97988.27
2018-09-27T11:51:02.730Z,97988.30
2018-09-27T11:53:31.326Z,97989.81
2018-09-27T11:55:59.970Z,97981.08
2018-09-27T11:58:28.686Z,97981.22
2018-09-27T12:00:57.847Z,97966.17
2018-09-27T12:03:26.563Z,97960.19
2018-09-27T12:05:55.114Z,97958.22
2018-09-27T12:08:23.807Z,97953.45
2018-09-27T12:10:52.769Z,97949.78
2018-09-27T12:13:21.414Z,97944.25
2018-09-27T12:15:49.934Z,97938.38
2018-09-27T12:18:18.636Z,97927.45
2018-09-27T12:20:47.934Z,97921.11
2018-09-27T12:23:16.505Z,97920.11
2018-09-27T12:25:45.688Z,97919.92
2018-09-27T12:28:15.123Z,97916.96
2018-09-27T12:30:43.677Z,97908.08
2018-09-27T12:33:12.715Z,97904.80
2018-09-27T12:35:41.665Z,97895.90
2018-09-27T12:38:10.362Z,97896.50
2018-09-27T12:40:39.154Z,97893.54
2018-09-27T12:43:08.300Z,97896.36
2018-09-27T12:45:37.686Z,97881.80
2018-09-27T12:48:06.356Z,97875.01
2018-09-27T12:50:34.931Z,97873.05
2018-09-27T12:53:03.585Z,97861.20
2018-09-27T12:55:32.111Z,97866.77
2018-09-27T12:58:00.751Z,97859.31
2018-09-27T13:00:29.314Z,97852.83
2018-09-27T13:02:58.017Z,97840.84
2018-09-27T13:05:26.546Z,97844.08
2018-09-27T13:07:56.097Z,97839.27
2018-09-27T13:10:25.292Z,97842.00
2018-09-27T13:12:54.170Z,97842.41
2018-09-27T13:15:22.943Z,97837.36
2018-09-27T13:17:51.551Z,97837.09
2018-09-27T13:20:20.422Z,97838.17
2018-09-27T13:22:49.017Z,97833.70
2018-09-27T13:25:17.551Z,97827.84
2018-09-27T13:27:46.137Z,97824.91
2018-09-27T13:30:14.703Z,97817.92
2018-09-27T13:32:45.442Z,97821.91
2018-09-27T13:35:14.881Z,97818.11
2018-09-27T13:37:43.465Z,97811.53
2018-09-27T13:40:12.122Z,97805.68
2018-09-27T13:42:40.697Z,97797.87
2018-09-27T13:45:09.338Z,97802.92
2018-09-27T13:47:37.886Z,97782.77
2018-09-27T13:50:06.830Z,97785.45
2018-09-27T13:52:35.393Z,97781.11
2018-09-27T13:55:04.470Z,97774.87
2018-09-27T13:57:33.019Z,97777.23
2018-09-27T14:00:02.895Z,97766.64
2018-09-27T14:02:31.451Z,97752.08
2018-09-27T14:05:00.105Z,97756.59
2018-09-27T14:07:28.669Z,97752.56
2018-09-27T14:09:59.958Z,97747.31
2018-09-27T14:12:28.501Z,97743.41
2018-09-27T14:14:57.109Z,97744.67
2018-09-27T14:17:25.926Z,97739.64
2018-09-27T14:19:54.663Z,97734.14
2018-09-27T14:22:23.222Z,97734.10
2018-09-27T14:24:51.902Z,97731.45
2018-09-27T14:27:21.014Z,97729.48
2018-09-27T14:29:49.998Z,97727.97
2018-09-27T14:32:18.594Z,97711.61
2018-09-27T14:34:47.141Z,97710.25
2018-09-27T14:37:15.701Z,97710.27
2018-09-27T14:39:44.647Z,97715.04
2018-09-27T14:42:13.219Z,97711.55
2018-09-27T14:44:41.801Z,97708.45
2018-09-27T14:47:10.394Z,97710.43
2018-09-27T14:49:38.982Z,97704.67
2018-09-27T14:52:07.590Z,97692.08
2018-09-27T14:54:36.585Z,97701.95
2018-09-27T14:57:05.154Z,97697.98
2018-09-27T14:59:33.793Z,97695.51
2018-09-27T15:02:02.410Z,97686.79
2018-09-27T15:04:31.002Z,97682.56
2018-09-27T15:06:59.534Z,97680.50
2018-09-27T15:09:28.147Z,97682.48
2018-09-27T15:11:56.690Z,97687.98
2018-09-27T15:14:28.465Z,97677.41
2018-09-27T15:16:58.302Z,97680.34
2018-09-27T15:19:26.870Z,97678.95
2018-09-27T15:21:55.413Z,97682.48
2018-09-27T15:24:24.011Z,97680.70
2018-09-27T15:26:52.559Z,97669.95
2018-09-27T15:29:21.146Z,97664.38
2018-09-27T15:31:49.719Z,97661.72
2018-09-27T15:34:18.392Z,97661.44
2018-09-27T15:36:46.992Z,97655.81
2018-09-27T15:39:15.542Z,97650.97
2018-09-27T15:41:44.165Z,97649.59
2018-09-27T15:44:12.741Z,97639.45
2018-09-27T15:46:41.330Z,97642.93
2018-09-27T15:49:09.885Z,97647.30
2018-09-27T15:51:38.460Z,97652.34
2018-09-27T15:54:07.001Z,97642.25
2018-09-27T15:56:35.594Z,97634.23
2018-09-27T15:59:04.146Z,97627.56
2018-09-27T16:01:32.738Z,97627.59
2018-09-27T16:04:01.383Z,97621.48
2018-09-27T16:06:29.910Z,97622.33
2018-09-27T16:08:58.444Z,97612.44
2018-09-27T16:11:27.078Z,97612.95
2018-09-27T16:13:55.646Z,97615.59
2018-09-27T16:16:24.229Z,97613.72
2018-09-27T16:18:52.870Z,97614.47
2018-09-27T16:21:21.458Z,97613.09
2018-09-27T16:23:50.015Z,97616.84
2018-09-27T16:26:18.597Z,97608.44
2018-09-27T16:28:47.170Z,97609.57
2018-09-27T16:31:15.769Z,97608.86
2018-09-27T16:33:44.321Z,97607.13
2018-09-27T16:36:12.911Z,97605.77
2018-09-27T16:38:41.685Z,97606.02
2018-09-27T16:41:10.418Z,97607.94
2018-09-27T16:43:39.406Z,97600.92
2018-09-27T16:46:08.023Z,97606.55
2018-09-27T16:48:37.009Z,97604.91
2018-09-27T16:51:05.721Z,97602.78
2018-09-27T16:53:34.306Z,97608.87
2018-09-27T16:56:02.905Z,97608.91
2018-09-27T16:58:31.471Z,97610.67
2018-09-27T17:01:00.457Z,97610.09
2018-09-27T17:03:29.003Z,97608.17
2018-09-27T17:05:57.607Z,97610.19
2018-09-27T17:08:26.158Z,97601.68
2018-09-27T17:10:54.765Z,97601.39
2018-09-27T17:13:23.310Z,97598.88
2018-09-27T17:15:51.889Z,97598.58
2018-09-27T17:18:20.442Z,97602.71
2018-09-27T17:20:49.039Z,97594.08
2018-09-27T17:23:17.590Z,97596.58
2018-09-27T17:25:46.177Z,97595.22
2018-09-27T17:28:14.734Z,97594.45
2018-09-27T17:30:43.326Z,97589.83
2018-09-27T17:33:12.020Z,97587.38
2018-09-27T17:35:40.506Z,97590.75
2018-09-27T17:38:09.080Z,97594.90
2018-09-27T17:40:37.716Z,97582.98
2018-09-27T17:43:06.230Z,97584.83
2018-09-27T17:45:34.813Z,97588.39
2018-09-27T17:48:03.345Z,97584.80
2018-09-27T17:50:31.930Z,97586.55
2018-09-27T17:53:00.490Z,97589.53
2018-09-27T17:55:29.132Z,97588.47
2018-09-27T17:57:57.701Z,97590.70
2018-09-27T18:00:26.297Z,97589.95
2018-09-27T18:02:54.858Z,97601.36
2018-09-27T18:05:23.421Z,97599.45
2018-09-27T18:07:51.983Z,97600.02
2018-09-27T18:10:20.565Z,97602.75
2018-09-27T18:12:49.126Z,97602.51
2018-09-27T18:15:17.706Z,97601.98
2018-09-27T18:17:46.267Z,97607.37
2018-09-27T18:20:14.870Z,97608.19
2018-09-27T18:22:43.509Z,97611.17
2018-09-27T18:25:12.454Z,97609.78
2018-09-27T18:27:41.006Z,97608.70
2018-09-27T18:30:09.900Z,97613.58
2018-09-27T18:32:38.481Z,97615.71
2018-09-27T18:35:07.092Z,97608.67
2018-09-27T18:37:35.751Z,97609.98
2018-09-27T18:40:04.360Z,97614.02
2018-09-27T18:42:32.923Z,97613.21
2018-09-27T18:45:01.477Z,97607.52
2018-09-27T18:47:30.072Z,97607.72
2018-09-27T18:49:58.651Z,97607.66
2018-09-27T18:52:27.253Z,97609.50
2018-09-27T18:54:55.834Z,97606.16
2018-09-27T18:57:24.448Z,97607.23
2018-09-27T18:59:52.998Z,97602.94
2018-09-27T19:02:21.590Z,97604.98
2018-09-27T19:04:50.142Z,97599.11
2018-09-27T19:07:18.766Z,97599.36
2018-09-27T19:09:47.325Z,97594.92
2018-09-27T19:12:15.912Z,97590.56
2018-09-27T19:14:44.458Z,97594.98
2018-09-27T19:17:13.232Z,97590.27
2018-09-27T19:19:41.622Z,97589.53
2018-09-27T19:22:10.198Z,97591.27
2018-09-27T19:24:38.739Z,97589.00
2018-09-27T19:27:07.358Z,97586.89
2018-09-27T19:29:35.910Z,97586.77
2018-09-27T19:32:04.507Z,97575.13
2018-09-27T19:34:33.042Z,97580.75
2018-09-27T19:37:01.651Z,97587.73
2018-09-27T19:39:30.178Z,97580.17
2018-09-27T19:41:59.151Z,97582.92
2018-09-27T19:44:27.689Z,97583.65
2018-09-27T19:46:56.287Z,97578.87
2018-09-27T19:49:24.842Z,97584.87
2018-09-27T19:51:53.745Z,97579.88
2018-09-27T19:54:22.318Z,97585.66
2018-09-27T19:56:50.902Z,97585.68
2018-09-27T19:59:19.474Z,97593.64
2018-09-27T20:01:48.073Z,97589.95
2018-09-27T20:04:16.947Z,97579.33
2018-09-27T20:06:45.478Z,97581.72
2018-09-27T20:09:14.857Z,97575.81
2018-09-27T20:11:43.890Z,97579.48
2018-09-27T20:14:12.781Z,97573.30
2018-09-27T20:16:41.642Z,97576.50
2018-09-27T20:19:10.426Z,97572.81
2018-09-27T20:21:39.922Z,97573.52
2018-09-27T20:24:08.746Z,97570.77
2018-09-27T20:26:46.316Z,97570.71
2018-09-27T20:29:14.936Z,97568.03
2018-09-27T20:31:53.857Z,97573.05
2018-09-27T20:34:28.224Z,97569.53
2018-09-27T20:36:57.784Z,97572.92
2018-09-27T20:39:27.225Z,97570.84
2018-09-27T20:41:56.010Z,97567.32
2018-09-27T20:44:24.630Z,97568.73
2018-09-27T20:46:53.212Z,97569.87
2018-09-27T20:49:21.947Z,97574.73
2018-09-27T20:51:51.762Z,97576.70
2018-09-27T20:54:21.822Z,97571.56
2018-09-27T20:56:51.574Z,97573.17
2018-09-27T20:59:21.389Z,97570.48
2018-09-27T21:01:50.833Z,97563.21
2018-09-27T21:04:21.777Z,97565.84
2018-09-27T21:06:51.501Z,97562.20
2018-09-27T21:09:21.822Z,97560.31
2018-09-27T21:11:54.973Z,97565.40
2018-09-27T21:14:23.493Z,97557.27
2018-09-27T21:16:52.037Z,97558.39
2018-09-27T21:19:22.575Z,97559.08
2018-09-27T21:21:51.955Z,97554.58
2018-09-27T21:24:20.578Z,97552.73
2018-09-27T21:26:49.138Z,97556.27
2018-09-27T21:29:17.657Z,97548.51
2018-09-27T21:31:46.203Z,97556.95
2018-09-27T21:34:14.734Z,97554.72
2018-09-27T21:36:43.283Z,97557.57
2018-09-27T21:39:11.801Z,97554.28
2018-09-27T21:41:40.738Z,97552.58
2018-09-27T21:44:09.785Z,97547.33
2018-09-27T21:46:38.820Z,97548.23
2018-09-27T21:49:07.389Z,97554.07
2018-09-27T21:51:35.914Z,97541.41
2018-09-27T21:54:04.453Z,97547.47
2018-09-27T21:56:33.015Z,97553.52
2018-09-27T21:59:01.653Z,97550.11
2018-09-27T22:01:30.226Z,97549.22
2018-09-27T22:03:58.786Z,97553.45
2018-09-27T22:06:27.610Z,97544.23
2018-09-27T22:08:56.153Z,97548.23
2018-09-27T22:11:25.177Z,97543.70
2018-09-27T22:13:54.789Z,97545.58
2018-09-27T22:16:23.330Z,97545.12
2018-09-27T22:18:51.913Z,97547.42
2018-09-27T22:21:20.438Z,97552.48
2018-09-27T22:23:48.985Z,97544.30
2018-09-27T22:26:17.519Z,97541.24
2018-09-27T22:28:46.081Z,97538.72
2018-09-27T22:31:14.642Z,97541.02
2018-09-27T22:33:43.185Z,97547.22
2018-09-27T22:36:11.720Z,97540.41
2018-09-27T22:38:40.280Z,97547.69
2018-09-27T22:41:08.813Z,97540.80
2018-09-27T22:43:37.363Z,97538.36
2018-09-27T22:46:06.086Z,97532.47
2018-09-27T22:48:34.655Z,97536.92
2018-09-27T22:51:03.187Z,97540.25
2018-09-27T22:53:32.031Z,97542.64
2018-09-27T22:56:00.554Z,97539.40
2018-09-27T22:58:29.126Z,97536.19
2018-09-27T23:00:57.654Z,97533.51
2018-09-27T23:03:26.222Z,97529.42
2018-09-27T23:05:54.759Z,97528.87
2018-09-27T23:08:23.333Z,97528.88
2018-09-27T23:10:51.854Z,97533.04
2018-09-27T23:13:51.015Z,97520.62
2018-09-27T23:16:19.534Z,97525.13
2018-09-27T23:18:48.093Z,97523.72
2018-09-27T23:21:16.837Z,97522.97
2018-09-27T23:23:45.371Z,97514.72
2018-09-27T23:26:13.882Z,97518.05
2018-09-27T23:28:42.649Z,97520.13
2018-09-27T23:31:11.173Z,97515.38
2018-09-27T23:33:39.739Z,97515.48
2018-09-27T23:36:08.274Z,97512.58
2018-09-27T23:38:36.842Z,97509.50
2018-09-27T23:41:05.401Z,97510.49
2018-09-27T23:43:33.921Z,97507.31
2018-09-27T23:46:02.459Z,97508.06
2018-09-27T23:48:31.018Z,97507.39
2018-09-27T23:50:59.539Z,97509.30
2018-09-27T23:53:28.084Z,97512.22
2018-09-27T23:55:56.597Z,97506.28
2018-09-27T23:58:25.316Z,97506.98
